sensor_id;sensor_type;location;lat;lon;timestamp;noise_LAeq;noise_LA_min;noise_LA_max;noise_LA01;noise_LA95
70454;Laerm;57915;47.174;14.680;2023-11-19T00:00:23;38.17;35.07;43.84;;
70454;Laerm;57915;47.174;14.680;2023-11-19T00:01:26;38.40;34.37;47.94;;
70454;Laerm;57915;47.174;14.680;2023-11-19T00:02:27;54.04;34.44;66.80;;
70454;Laerm;57915;47.174;14.680;2023-11-19T00:03:28;37.65;34.80;43.39;;
70454;Laerm;57915;47.174;14.680;2023-11-19T00:04:28;53.74;34.76;66.52;;
70454;Laerm;57915;47.174;14.680;2023-11-19T00:05:30;37.94;34.28;44.88;;
70454;Laerm;57915;47.174;14.680;2023-11-19T00:06:30;53.95;35.36;68.81;;
70454;Laerm;57915;47.174;14.680;2023-11-19T00:07:32;57.72;35.89;69.03;;
70454;Laerm;57915;47.174;14.680;2023-11-19T00:08:32;58.46;34.46;69.98;;
70454;Laerm;57915;47.174;14.680;2023-11-19T00:09:34;37.74;34.74;41.39;;
70454;Laerm;57915;47.174;14.680;2023-11-19T00:10:37;38.20;35.06;41.80;;
70454;Laerm;57915;47.174;14.680;2023-11-19T00:11:38;37.40;34.57;41.42;;
70454;Laerm;57915;47.174;14.680;2023-11-19T00:12:38;52.76;35.10;66.28;;
70454;Laerm;57915;47.174;14.680;2023-11-19T00:13:40;44.50;34.65;60.44;;
70454;Laerm;57915;47.174;14.680;2023-11-19T00:14:40;37.89;35.28;40.78;;
70454;Laerm;57915;47.174;14.680;2023-11-19T00:15:42;38.30;35.13;40.70;;
70454;Laerm;57915;47.174;14.680;2023-11-19T00:16:44;44.44;36.26;52.77;;
70454;Laerm;57915;47.174;14.680;2023-11-19T00:17:45;41.88;37.78;47.48;;
70454;Laerm;57915;47.174;14.680;2023-11-19T00:18:46;58.34;38.58;71.95;;
70454;Laerm;57915;47.174;14.680;2023-11-19T00:19:47;39.41;36.42;45.91;;
70454;Laerm;57915;47.174;14.680;2023-11-19T00:20:49;39.63;36.75;42.94;;
70454;Laerm;57915;47.174;14.680;2023-11-19T00:21:49;38.56;35.81;42.66;;
70454;Laerm;57915;47.174;14.680;2023-11-19T00:22:51;39.33;35.53;43.08;;
70454;Laerm;57915;47.174;14.680;2023-11-19T00:23:51;40.49;36.22;51.42;;
70454;Laerm;57915;47.174;14.680;2023-11-19T00:24:53;55.40;36.94;69.76;;
70454;Laerm;57915;47.174;14.680;2023-11-19T00:25:53;55.29;34.91;68.62;;
70454;Laerm;57915;47.174;14.680;2023-11-19T00:26:55;37.99;34.93;42.20;;
70454;Laerm;57915;47.174;14.680;2023-11-19T00:27:55;37.51;34.93;40.07;;
70454;Laerm;57915;47.174;14.680;2023-11-19T00:28:57;38.36;35.77;40.84;;
70454;Laerm;57915;47.174;14.680;2023-11-19T00:29:57;37.41;34.50;40.11;;
70454;Laerm;57915;47.174;14.680;2023-11-19T00:30:58;37.18;34.54;39.84;;
70454;Laerm;57915;47.174;14.680;2023-11-19T00:32:01;53.02;35.78;66.84;;
70454;Laerm;57915;47.174;14.680;2023-11-19T00:33:02;37.99;34.65;45.74;;
70454;Laerm;57915;47.174;14.680;2023-11-19T00:34:03;37.25;34.37;45.58;;
70454;Laerm;57915;47.174;14.680;2023-11-19T00:35:06;55.69;34.42;69.42;;
70454;Laerm;57915;47.174;14.680;2023-11-19T00:36:08;37.86;34.36;42.73;;
70454;Laerm;57915;47.174;14.680;2023-11-19T00:37:09;36.50;33.92;40.39;;
70454;Laerm;57915;47.174;14.680;2023-11-19T00:38:10;52.87;34.62;65.92;;
70454;Laerm;57915;47.174;14.680;2023-11-19T00:39:11;36.69;34.10;41.54;;
70454;Laerm;57915;47.174;14.680;2023-11-19T00:40:15;37.44;34.43;42.83;;
70454;Laerm;57915;47.174;14.680;2023-11-19T00:41:17;37.32;34.39;41.82;;
70454;Laerm;57915;47.174;14.680;2023-11-19T00:42:18;37.82;34.76;43.86;;
70454;Laerm;57915;47.174;14.680;2023-11-19T00:43:19;37.82;34.69;41.32;;
70454;Laerm;57915;47.174;14.680;2023-11-19T00:44:22;38.12;34.90;43.53;;
70454;Laerm;57915;47.174;14.680;2023-11-19T00:45:23;38.21;34.18;45.64;;
70454;Laerm;57915;47.174;14.680;2023-11-19T00:46:24;39.02;35.33;45.70;;
70454;Laerm;57915;47.174;14.680;2023-11-19T00:47:26;37.55;34.56;40.19;;
70454;Laerm;57915;47.174;14.680;2023-11-19T00:48:28;37.28;34.66;39.89;;
70454;Laerm;57915;47.174;14.680;2023-11-19T00:49:28;38.05;35.39;40.36;;
70454;Laerm;57915;47.174;14.680;2023-11-19T00:50:30;38.23;36.18;41.92;;
70454;Laerm;57915;47.174;14.680;2023-11-19T00:51:31;38.68;36.02;43.67;;
70454;Laerm;57915;47.174;14.680;2023-11-19T00:52:32;38.64;35.58;41.13;;
70454;Laerm;57915;47.174;14.680;2023-11-19T00:53:33;38.72;36.02;41.25;;
70454;Laerm;57915;47.174;14.680;2023-11-19T00:54:34;41.04;35.76;45.32;;
70454;Laerm;57915;47.174;14.680;2023-11-19T00:55:35;41.61;36.56;45.46;;
70454;Laerm;57915;47.174;14.680;2023-11-19T00:56:35;38.57;35.72;42.66;;
70454;Laerm;57915;47.174;14.680;2023-11-19T00:57:37;38.45;35.67;42.29;;
70454;Laerm;57915;47.174;14.680;2023-11-19T00:58:37;38.58;35.73;43.04;;
70454;Laerm;57915;47.174;14.680;2023-11-19T00:59:41;61.37;35.76;76.05;;
70454;Laerm;57915;47.174;14.680;2023-11-19T01:00:41;40.94;37.08;45.58;;
70454;Laerm;57915;47.174;14.680;2023-11-19T01:01:43;43.41;37.10;49.84;;
70454;Laerm;57915;47.174;14.680;2023-11-19T01:02:45;42.03;37.23;46.34;;
70454;Laerm;57915;47.174;14.680;2023-11-19T01:03:46;55.77;37.43;68.88;;
70454;Laerm;57915;47.174;14.680;2023-11-19T01:04:47;55.57;36.27;69.83;;
70454;Laerm;57915;47.174;14.680;2023-11-19T01:05:47;59.53;41.08;72.48;;
70454;Laerm;57915;47.174;14.680;2023-11-19T01:06:49;54.81;37.43;68.01;;
70454;Laerm;57915;47.174;14.680;2023-11-19T01:07:49;38.29;34.53;42.55;;
70454;Laerm;57915;47.174;14.680;2023-11-19T01:08:50;37.06;34.63;40.81;;
70454;Laerm;57915;47.174;14.680;2023-11-19T01:09:52;36.37;33.70;43.05;;
70454;Laerm;57915;47.174;14.680;2023-11-19T01:10:54;38.16;35.20;41.31;;
70454;Laerm;57915;47.174;14.680;2023-11-19T01:11:55;41.82;37.41;45.99;;
70454;Laerm;57915;47.174;14.680;2023-11-19T01:12:56;41.06;36.24;44.77;;
70454;Laerm;57915;47.174;14.680;2023-11-19T01:13:57;55.67;35.99;69.55;;
70454;Laerm;57915;47.174;14.680;2023-11-19T01:14:58;62.11;36.39;74.87;;
70454;Laerm;57915;47.174;14.680;2023-11-19T01:15:59;40.93;36.08;51.88;;
70454;Laerm;57915;47.174;14.680;2023-11-19T01:17:02;40.74;37.38;45.19;;
70454;Laerm;57915;47.174;14.680;2023-11-19T01:18:06;39.70;36.62;47.24;;
70454;Laerm;57915;47.174;14.680;2023-11-19T01:19:09;39.17;36.01;43.57;;
70454;Laerm;57915;47.174;14.680;2023-11-19T01:20:11;39.12;35.21;45.40;;
70454;Laerm;57915;47.174;14.680;2023-11-19T01:21:13;41.23;36.49;48.02;;
70454;Laerm;57915;47.174;14.680;2023-11-19T01:22:14;60.81;40.94;73.01;;
70454;Laerm;57915;47.174;14.680;2023-11-19T01:23:15;50.47;35.61;68.60;;
70454;Laerm;57915;47.174;14.680;2023-11-19T01:24:16;38.85;35.63;44.34;;
70454;Laerm;57915;47.174;14.680;2023-11-19T01:25:17;52.96;37.65;65.14;;
70454;Laerm;57915;47.174;14.680;2023-11-19T01:26:18;40.85;37.39;43.94;;
70454;Laerm;57915;47.174;14.680;2023-11-19T01:27:18;53.83;35.43;66.05;;
70454;Laerm;57915;47.174;14.680;2023-11-19T01:28:19;40.74;36.94;44.04;;
70454;Laerm;57915;47.174;14.680;2023-11-19T01:29:20;41.30;37.56;45.09;;
70454;Laerm;57915;47.174;14.680;2023-11-19T01:30:21;44.68;37.51;54.88;;
70454;Laerm;57915;47.174;14.680;2023-11-19T01:31:22;41.54;37.18;45.59;;
70454;Laerm;57915;47.174;14.680;2023-11-19T01:32:23;39.08;35.73;43.22;;
70454;Laerm;57915;47.174;14.680;2023-11-19T01:33:26;40.11;35.77;44.35;;
70454;Laerm;57915;47.174;14.680;2023-11-19T01:34:28;40.05;36.99;42.66;;
70454;Laerm;57915;47.174;14.680;2023-11-19T01:35:29;56.85;36.98;69.66;;
70454;Laerm;57915;47.174;14.680;2023-11-19T01:36:29;40.92;35.27;45.53;;
70454;Laerm;57915;47.174;14.680;2023-11-19T01:37:31;40.44;36.65;52.34;;
70454;Laerm;57915;47.174;14.680;2023-11-19T01:38:32;41.37;37.89;46.03;;
70454;Laerm;57915;47.174;14.680;2023-11-19T01:39:33;41.06;36.30;47.26;;
70454;Laerm;57915;47.174;14.680;2023-11-19T01:40:34;44.59;38.70;51.00;;
70454;Laerm;57915;47.174;14.680;2023-11-19T01:41:36;46.02;38.09;54.12;;
70454;Laerm;57915;47.174;14.680;2023-11-19T01:42:37;42.72;38.50;46.87;;
70454;Laerm;57915;47.174;14.680;2023-11-19T01:43:39;40.56;36.45;44.16;;
70454;Laerm;57915;47.174;14.680;2023-11-19T01:44:41;39.87;36.22;44.63;;
70454;Laerm;57915;47.174;14.680;2023-11-19T01:45:42;39.70;36.45;43.21;;
70454;Laerm;57915;47.174;14.680;2023-11-19T01:46:44;42.75;38.45;46.12;;
70454;Laerm;57915;47.174;14.680;2023-11-19T01:47:47;44.12;40.50;48.69;;
70454;Laerm;57915;47.174;14.680;2023-11-19T01:48:49;40.77;37.22;44.72;;
70454;Laerm;57915;47.174;14.680;2023-11-19T01:49:50;42.53;39.13;45.77;;
70454;Laerm;57915;47.174;14.680;2023-11-19T01:50:51;47.11;39.91;55.26;;
70454;Laerm;57915;47.174;14.680;2023-11-19T01:51:52;44.90;35.72;56.94;;
70454;Laerm;57915;47.174;14.680;2023-11-19T01:52:54;39.77;36.50;43.41;;
70454;Laerm;57915;47.174;14.680;2023-11-19T01:53:57;39.11;35.79;42.52;;
70454;Laerm;57915;47.174;14.680;2023-11-19T01:54:59;40.56;37.14;52.99;;
70454;Laerm;57915;47.174;14.680;2023-11-19T01:56:00;40.37;36.71;44.19;;
70454;Laerm;57915;47.174;14.680;2023-11-19T01:57:02;40.38;36.43;52.09;;
70454;Laerm;57915;47.174;14.680;2023-11-19T01:58:03;42.96;38.10;47.01;;
70454;Laerm;57915;47.174;14.680;2023-11-19T01:59:05;54.96;37.09;69.28;;
70454;Laerm;57915;47.174;14.680;2023-11-19T02:00:06;40.57;36.36;45.09;;
70454;Laerm;57915;47.174;14.680;2023-11-19T02:01:11;42.65;38.00;45.90;;
70454;Laerm;57915;47.174;14.680;2023-11-19T02:02:12;42.86;38.15;47.26;;
70454;Laerm;57915;47.174;14.680;2023-11-19T02:03:14;40.78;36.26;46.70;;
70454;Laerm;57915;47.174;14.680;2023-11-19T02:04:16;39.74;35.85;42.69;;
70454;Laerm;57915;47.174;14.680;2023-11-19T02:05:17;42.72;38.36;47.29;;
70454;Laerm;57915;47.174;14.680;2023-11-19T02:06:18;40.61;37.11;44.73;;
70454;Laerm;57915;47.174;14.680;2023-11-19T02:07:19;43.00;38.64;48.98;;
70454;Laerm;57915;47.174;14.680;2023-11-19T02:08:20;41.97;38.33;51.27;;
70454;Laerm;57915;47.174;14.680;2023-11-19T02:09:22;41.85;38.20;48.38;;
70454;Laerm;57915;47.174;14.680;2023-11-19T02:10:22;40.22;36.23;46.19;;
70454;Laerm;57915;47.174;14.680;2023-11-19T02:11:24;40.34;36.30;44.67;;
70454;Laerm;57915;47.174;14.680;2023-11-19T02:12:29;40.82;37.95;44.09;;
70454;Laerm;57915;47.174;14.680;2023-11-19T02:13:33;41.50;36.93;45.16;;
70454;Laerm;57915;47.174;14.680;2023-11-19T02:14:36;40.33;36.63;45.39;;
70454;Laerm;57915;47.174;14.680;2023-11-19T02:15:36;39.50;36.66;42.75;;
70454;Laerm;57915;47.174;14.680;2023-11-19T02:16:37;42.55;38.40;46.39;;
70454;Laerm;57915;47.174;14.680;2023-11-19T02:17:38;41.30;37.35;45.01;;
70454;Laerm;57915;47.174;14.680;2023-11-19T02:18:39;58.51;38.48;70.20;;
70454;Laerm;57915;47.174;14.680;2023-11-19T02:19:41;40.13;37.38;45.58;;
70454;Laerm;57915;47.174;14.680;2023-11-19T02:20:42;40.10;36.61;46.86;;
70454;Laerm;57915;47.174;14.680;2023-11-19T02:21:42;40.42;36.01;44.95;;
70454;Laerm;57915;47.174;14.680;2023-11-19T02:22:44;40.49;37.05;55.45;;
70454;Laerm;57915;47.174;14.680;2023-11-19T02:23:44;45.66;36.22;59.58;;
70454;Laerm;57915;47.174;14.680;2023-11-19T02:24:46;53.93;37.84;66.43;;
70454;Laerm;57915;47.174;14.680;2023-11-19T02:25:52;60.00;38.43;73.64;;
70454;Laerm;57915;47.174;14.680;2023-11-19T02:26:59;41.39;37.11;44.74;;
70454;Laerm;57915;47.174;14.680;2023-11-19T02:28:03;44.43;40.11;48.83;;
70454;Laerm;57915;47.174;14.680;2023-11-19T02:29:05;42.81;38.07;47.60;;
70454;Laerm;57915;47.174;14.680;2023-11-19T02:30:07;42.38;38.89;45.68;;
70454;Laerm;57915;47.174;14.680;2023-11-19T02:31:09;42.73;38.38;47.32;;
70454;Laerm;57915;47.174;14.680;2023-11-19T02:32:10;39.30;35.70;42.86;;
70454;Laerm;57915;47.174;14.680;2023-11-19T02:33:13;39.02;35.60;42.77;;
70454;Laerm;57915;47.174;14.680;2023-11-19T02:34:15;40.50;36.95;44.59;;
70454;Laerm;57915;47.174;14.680;2023-11-19T02:35:16;40.70;37.53;44.31;;
70454;Laerm;57915;47.174;14.680;2023-11-19T02:36:17;40.19;37.26;49.19;;
70454;Laerm;57915;47.174;14.680;2023-11-19T02:37:17;41.74;37.60;46.21;;
70454;Laerm;57915;47.174;14.680;2023-11-19T02:38:19;39.82;36.99;42.37;;
70454;Laerm;57915;47.174;14.680;2023-11-19T02:39:22;40.00;37.25;42.92;;
70454;Laerm;57915;47.174;14.680;2023-11-19T02:40:23;39.96;35.89;52.03;;
70454;Laerm;57915;47.174;14.680;2023-11-19T02:41:24;41.84;37.68;47.46;;
70454;Laerm;57915;47.174;14.680;2023-11-19T02:42:25;39.46;36.37;43.28;;
70454;Laerm;57915;47.174;14.680;2023-11-19T02:43:27;40.20;37.23;43.91;;
70454;Laerm;57915;47.174;14.680;2023-11-19T02:44:28;39.49;35.74;44.71;;
70454;Laerm;57915;47.174;14.680;2023-11-19T02:45:30;41.22;36.92;45.34;;
70454;Laerm;57915;47.174;14.680;2023-11-19T02:46:31;40.61;37.35;47.14;;
70454;Laerm;57915;47.174;14.680;2023-11-19T02:47:32;40.95;36.82;43.56;;
70454;Laerm;57915;47.174;14.680;2023-11-19T02:48:33;56.32;36.89;69.68;;
70454;Laerm;57915;47.174;14.680;2023-11-19T02:49:35;38.14;35.43;41.51;;
70454;Laerm;57915;47.174;14.680;2023-11-19T02:50:37;38.18;35.03;44.10;;
70454;Laerm;57915;47.174;14.680;2023-11-19T02:51:37;58.73;36.71;72.18;;
70454;Laerm;57915;47.174;14.680;2023-11-19T02:52:39;41.44;37.38;45.83;;
70454;Laerm;57915;47.174;14.680;2023-11-19T02:53:40;44.41;39.24;50.00;;
70454;Laerm;57915;47.174;14.680;2023-11-19T02:54:44;59.80;40.72;73.67;;
70454;Laerm;57915;47.174;14.680;2023-11-19T02:55:45;56.08;36.24;69.34;;
70454;Laerm;57915;47.174;14.680;2023-11-19T02:56:50;43.04;34.54;55.38;;
70454;Laerm;57915;47.174;14.680;2023-11-19T02:57:55;56.01;34.92;71.41;;
70454;Laerm;57915;47.174;14.680;2023-11-19T02:59:00;37.42;34.39;40.38;;
70454;Laerm;57915;47.174;14.680;2023-11-19T03:00:07;37.72;33.73;45.16;;
70454;Laerm;57915;47.174;14.680;2023-11-19T03:01:12;37.35;33.72;45.49;;
70454;Laerm;57915;47.174;14.680;2023-11-19T03:02:19;42.93;35.88;56.56;;
70454;Laerm;57915;47.174;14.680;2023-11-19T03:03:21;41.27;35.97;48.53;;
70454;Laerm;57915;47.174;14.680;2023-11-19T03:04:22;38.13;34.92;43.70;;
70454;Laerm;57915;47.174;14.680;2023-11-19T03:05:24;60.13;35.60;76.75;;
70454;Laerm;57915;47.174;14.680;2023-11-19T03:06:25;37.87;34.23;42.42;;
70454;Laerm;57915;47.174;14.680;2023-11-19T03:07:27;53.16;35.31;65.71;;
70454;Laerm;57915;47.174;14.680;2023-11-19T03:08:27;36.80;34.20;42.01;;
70454;Laerm;57915;47.174;14.680;2023-11-19T03:09:28;57.80;38.88;68.21;;
70454;Laerm;57915;47.174;14.680;2023-11-19T03:10:29;38.90;34.53;43.93;;
70454;Laerm;57915;47.174;14.680;2023-11-19T03:11:30;36.70;33.90;40.15;;
70454;Laerm;57915;47.174;14.680;2023-11-19T03:12:31;44.73;34.79;63.77;;
70454;Laerm;57915;47.174;14.680;2023-11-19T03:13:31;50.41;37.76;65.41;;
70454;Laerm;57915;47.174;14.680;2023-11-19T03:14:34;42.79;33.74;54.09;;
70454;Laerm;57915;47.174;14.680;2023-11-19T03:15:35;36.34;33.57;41.03;;
70454;Laerm;57915;47.174;14.680;2023-11-19T03:16:37;47.79;34.71;59.70;;
70454;Laerm;57915;47.174;14.680;2023-11-19T03:17:38;38.26;33.24;48.62;;
70454;Laerm;57915;47.174;14.680;2023-11-19T03:18:39;37.02;33.73;43.25;;
70454;Laerm;57915;47.174;14.680;2023-11-19T03:19:40;51.72;32.82;62.91;;
70454;Laerm;57915;47.174;14.680;2023-11-19T03:20:41;34.80;32.42;39.44;;
70454;Laerm;57915;47.174;14.680;2023-11-19T03:21:42;35.51;32.80;41.65;;
70454;Laerm;57915;47.174;14.680;2023-11-19T03:22:44;54.20;35.96;68.04;;
70454;Laerm;57915;47.174;14.680;2023-11-19T03:23:45;36.55;33.49;47.59;;
70454;Laerm;57915;47.174;14.680;2023-11-19T03:24:46;34.85;32.31;39.21;;
70454;Laerm;57915;47.174;14.680;2023-11-19T03:25:47;34.58;32.58;36.99;;
70454;Laerm;57915;47.174;14.680;2023-11-19T03:26:48;35.12;32.38;39.54;;
70454;Laerm;57915;47.174;14.680;2023-11-19T03:27:50;37.07;34.18;40.50;;
70454;Laerm;57915;47.174;14.680;2023-11-19T03:28:51;38.27;34.83;42.60;;
70454;Laerm;57915;47.174;14.680;2023-11-19T03:29:53;37.92;34.42;41.90;;
70454;Laerm;57915;47.174;14.680;2023-11-19T03:30:55;37.65;33.86;42.06;;
70454;Laerm;57915;47.174;14.680;2023-11-19T03:31:55;35.51;32.49;41.05;;
70454;Laerm;57915;47.174;14.680;2023-11-19T03:32:57;35.92;32.42;48.25;;
70454;Laerm;57915;47.174;14.680;2023-11-19T03:33:57;57.97;32.38;70.02;;
70454;Laerm;57915;47.174;14.680;2023-11-19T03:34:59;38.14;32.83;47.01;;
70454;Laerm;57915;47.174;14.680;2023-11-19T03:35:59;59.19;32.84;72.82;;
70454;Laerm;57915;47.174;14.680;2023-11-19T03:37:01;35.66;32.93;39.65;;
70454;Laerm;57915;47.174;14.680;2023-11-19T03:38:01;38.23;34.33;45.42;;
70454;Laerm;57915;47.174;14.680;2023-11-19T03:39:03;36.20;33.09;39.37;;
70454;Laerm;57915;47.174;14.680;2023-11-19T03:40:03;36.99;32.08;46.44;;
70454;Laerm;57915;47.174;14.680;2023-11-19T03:41:09;33.81;31.23;41.74;;
70454;Laerm;57915;47.174;14.680;2023-11-19T03:42:11;59.43;31.01;72.75;;
70454;Laerm;57915;47.174;14.680;2023-11-19T03:43:13;35.27;31.18;44.83;;
70454;Laerm;57915;47.174;14.680;2023-11-19T03:44:14;35.99;32.49;44.29;;
70454;Laerm;57915;47.174;14.680;2023-11-19T03:45:16;54.54;32.19;67.18;;
70454;Laerm;57915;47.174;14.680;2023-11-19T03:46:18;39.90;34.17;46.03;;
70454;Laerm;57915;47.174;14.680;2023-11-19T03:47:18;41.52;38.53;45.90;;
70454;Laerm;57915;47.174;14.680;2023-11-19T03:48:19;38.97;35.06;44.89;;
70454;Laerm;57915;47.174;14.680;2023-11-19T03:49:20;39.05;35.64;44.35;;
70454;Laerm;57915;47.174;14.680;2023-11-19T03:50:20;38.01;35.20;40.98;;
70454;Laerm;57915;47.174;14.680;2023-11-19T03:51:22;39.93;35.74;50.97;;
70454;Laerm;57915;47.174;14.680;2023-11-19T03:52:22;37.95;35.05;42.73;;
70454;Laerm;57915;47.174;14.680;2023-11-19T03:53:23;41.61;36.93;47.18;;
70454;Laerm;57915;47.174;14.680;2023-11-19T03:54:25;42.97;39.12;49.87;;
70454;Laerm;57915;47.174;14.680;2023-11-19T03:55:25;40.37;36.89;44.24;;
70454;Laerm;57915;47.174;14.680;2023-11-19T03:56:26;37.62;34.44;41.99;;
70454;Laerm;57915;47.174;14.680;2023-11-19T03:57:27;36.71;34.31;39.48;;
70454;Laerm;57915;47.174;14.680;2023-11-19T03:58:29;37.26;34.03;41.02;;
70454;Laerm;57915;47.174;14.680;2023-11-19T03:59:29;39.50;35.90;46.79;;
70454;Laerm;57915;47.174;14.680;2023-11-19T04:00:32;40.22;36.11;43.20;;
70454;Laerm;57915;47.174;14.680;2023-11-19T04:01:33;39.77;36.02;42.83;;
70454;Laerm;57915;47.174;14.680;2023-11-19T04:02:34;41.41;35.59;46.21;;
70454;Laerm;57915;47.174;14.680;2023-11-19T04:03:35;38.37;35.24;41.56;;
70454;Laerm;57915;47.174;14.680;2023-11-19T04:04:35;40.54;37.00;44.63;;
70454;Laerm;57915;47.174;14.680;2023-11-19T04:05:38;41.95;38.49;45.57;;
70454;Laerm;57915;47.174;14.680;2023-11-19T04:06:39;50.02;37.87;60.48;;
70454;Laerm;57915;47.174;14.680;2023-11-19T04:07:40;56.89;36.11;68.78;;
70454;Laerm;57915;47.174;14.680;2023-11-19T04:08:41;58.77;35.33;72.39;;
70454;Laerm;57915;47.174;14.680;2023-11-19T04:09:41;42.79;36.81;49.61;;
70454;Laerm;57915;47.174;14.680;2023-11-19T04:10:43;57.30;34.68;70.84;;
70454;Laerm;57915;47.174;14.680;2023-11-19T04:11:43;35.77;32.86;48.73;;
70454;Laerm;57915;47.174;14.680;2023-11-19T04:12:47;35.31;32.67;39.43;;
70454;Laerm;57915;47.174;14.680;2023-11-19T04:13:47;38.02;33.62;42.42;;
70454;Laerm;57915;47.174;14.680;2023-11-19T04:14:48;42.08;37.24;45.68;;
70454;Laerm;57915;47.174;14.680;2023-11-19T04:15:50;43.88;39.34;49.41;;
70454;Laerm;57915;47.174;14.680;2023-11-19T04:16:52;40.58;37.46;49.96;;
70454;Laerm;57915;47.174;14.680;2023-11-19T04:17:52;55.93;36.09;69.54;;
70454;Laerm;57915;47.174;14.680;2023-11-19T04:18:54;38.56;34.84;52.11;;
70454;Laerm;57915;47.174;14.680;2023-11-19T04:19:54;58.54;34.87;72.25;;
70454;Laerm;57915;47.174;14.680;2023-11-19T04:20:56;39.16;33.58;51.12;;
70454;Laerm;57915;47.174;14.680;2023-11-19T04:21:56;55.21;34.56;68.26;;
70454;Laerm;57915;47.174;14.680;2023-11-19T04:22:57;36.08;32.69;41.07;;
70454;Laerm;57915;47.174;14.680;2023-11-19T04:24:00;56.35;35.58;70.27;;
70454;Laerm;57915;47.174;14.680;2023-11-19T04:25:01;56.80;39.25;68.68;;
70454;Laerm;57915;47.174;14.680;2023-11-19T04:26:03;43.55;38.43;48.10;;
70454;Laerm;57915;47.174;14.680;2023-11-19T04:27:04;42.56;38.32;47.70;;
70454;Laerm;57915;47.174;14.680;2023-11-19T04:28:06;40.80;38.09;45.36;;
70454;Laerm;57915;47.174;14.680;2023-11-19T04:29:06;41.89;37.96;47.06;;
70454;Laerm;57915;47.174;14.680;2023-11-19T04:30:09;39.62;36.05;46.02;;
70454;Laerm;57915;47.174;14.680;2023-11-19T04:31:12;39.49;35.65;44.41;;
70454;Laerm;57915;47.174;14.680;2023-11-19T04:32:13;40.38;36.93;44.51;;
70454;Laerm;57915;47.174;14.680;2023-11-19T04:33:14;43.25;38.49;50.42;;
70454;Laerm;57915;47.174;14.680;2023-11-19T04:34:15;50.42;37.58;64.84;;
70454;Laerm;57915;47.174;14.680;2023-11-19T04:35:16;56.04;40.12;68.95;;
70454;Laerm;57915;47.174;14.680;2023-11-19T04:36:19;43.11;39.40;46.84;;
70454;Laerm;57915;47.174;14.680;2023-11-19T04:37:20;54.79;42.36;65.85;;
70454;Laerm;57915;47.174;14.680;2023-11-19T04:38:21;53.99;42.95;66.33;;
70454;Laerm;57915;47.174;14.680;2023-11-19T04:39:21;55.17;42.93;64.97;;
70454;Laerm;57915;47.174;14.680;2023-11-19T04:40:23;56.74;40.86;68.62;;
70454;Laerm;57915;47.174;14.680;2023-11-19T04:41:23;43.70;39.57;48.63;;
70454;Laerm;57915;47.174;14.680;2023-11-19T04:42:25;42.24;38.75;50.54;;
70454;Laerm;57915;47.174;14.680;2023-11-19T04:43:25;44.20;39.19;48.34;;
70454;Laerm;57915;47.174;14.680;2023-11-19T04:44:27;43.93;39.72;47.51;;
70454;Laerm;57915;47.174;14.680;2023-11-19T04:45:29;43.15;40.23;46.12;;
70454;Laerm;57915;47.174;14.680;2023-11-19T04:46:33;46.08;42.38;50.09;;
70454;Laerm;57915;47.174;14.680;2023-11-19T04:47:33;43.89;40.42;47.32;;
70454;Laerm;57915;47.174;14.680;2023-11-19T04:48:35;42.43;38.26;49.59;;
70454;Laerm;57915;47.174;14.680;2023-11-19T04:49:39;41.04;36.13;46.96;;
70454;Laerm;57915;47.174;14.680;2023-11-19T04:50:42;38.82;34.61;44.58;;
70454;Laerm;57915;47.174;14.680;2023-11-19T04:51:44;37.56;35.02;44.45;;
70454;Laerm;57915;47.174;14.680;2023-11-19T04:52:47;42.82;36.88;49.73;;
70454;Laerm;57915;47.174;14.680;2023-11-19T04:53:47;57.74;40.44;72.18;;
70454;Laerm;57915;47.174;14.680;2023-11-19T04:54:48;42.68;39.59;46.86;;
70454;Laerm;57915;47.174;14.680;2023-11-19T04:55:49;46.92;42.27;52.00;;
70454;Laerm;57915;47.174;14.680;2023-11-19T04:56:50;65.32;39.25;76.16;;
70454;Laerm;57915;47.174;14.680;2023-11-19T04:57:53;45.42;40.50;52.97;;
70454;Laerm;57915;47.174;14.680;2023-11-19T04:58:54;45.29;39.41;50.11;;
70454;Laerm;57915;47.174;14.680;2023-11-19T04:59:55;41.90;38.67;46.43;;
70454;Laerm;57915;47.174;14.680;2023-11-19T05:00:55;54.78;39.37;65.74;;
70454;Laerm;57915;47.174;14.680;2023-11-19T05:01:58;43.94;37.73;59.83;;
70454;Laerm;57915;47.174;14.680;2023-11-19T05:02:59;41.76;35.88;56.97;;
70454;Laerm;57915;47.174;14.680;2023-11-19T05:04:00;53.92;36.25;67.95;;
70454;Laerm;57915;47.174;14.680;2023-11-19T05:05:01;39.88;35.38;50.87;;
70454;Laerm;57915;47.174;14.680;2023-11-19T05:06:04;42.12;37.82;46.59;;
70454;Laerm;57915;47.174;14.680;2023-11-19T05:07:04;53.98;40.05;68.68;;
70454;Laerm;57915;47.174;14.680;2023-11-19T05:08:07;49.92;38.53;65.60;;
70454;Laerm;57915;47.174;14.680;2023-11-19T05:09:07;40.96;37.39;45.42;;
70454;Laerm;57915;47.174;14.680;2023-11-19T05:10:09;51.28;39.39;63.37;;
70454;Laerm;57915;47.174;14.680;2023-11-19T05:11:09;39.21;35.25;43.49;;
70454;Laerm;57915;47.174;14.680;2023-11-19T05:12:12;57.03;34.87;67.68;;
70454;Laerm;57915;47.174;14.680;2023-11-19T05:13:12;42.38;33.98;55.23;;
70454;Laerm;57915;47.174;14.680;2023-11-19T05:14:14;59.24;34.48;72.78;;
70454;Laerm;57915;47.174;14.680;2023-11-19T05:15:15;38.30;33.39;45.76;;
70454;Laerm;57915;47.174;14.680;2023-11-19T05:16:16;37.89;34.14;46.20;;
70454;Laerm;57915;47.174;14.680;2023-11-19T05:17:19;36.63;34.18;39.32;;
70454;Laerm;57915;47.174;14.680;2023-11-19T05:18:20;36.06;33.08;39.80;;
70454;Laerm;57915;47.174;14.680;2023-11-19T05:19:21;39.18;33.67;45.94;;
70454;Laerm;57915;47.174;14.680;2023-11-19T05:20:22;37.54;33.15;48.68;;
70454;Laerm;57915;47.174;14.680;2023-11-19T05:21:22;43.33;33.20;63.64;;
70454;Laerm;57915;47.174;14.680;2023-11-19T05:22:24;40.09;35.58;48.48;;
70454;Laerm;57915;47.174;14.680;2023-11-19T05:23:26;37.64;34.28;42.54;;
70454;Laerm;57915;47.174;14.680;2023-11-19T05:24:26;53.68;35.00;65.76;;
70454;Laerm;57915;47.174;14.680;2023-11-19T05:25:27;39.82;35.41;47.80;;
70454;Laerm;57915;47.174;14.680;2023-11-19T05:26:28;55.41;34.40;68.63;;
70454;Laerm;57915;47.174;14.680;2023-11-19T05:27:29;57.64;33.33;72.55;;
70454;Laerm;57915;47.174;14.680;2023-11-19T05:28:30;54.83;35.89;67.92;;
70454;Laerm;57915;47.174;14.680;2023-11-19T05:29:30;52.36;37.67;64.39;;
70454;Laerm;57915;47.174;14.680;2023-11-19T05:30:32;48.36;38.71;62.19;;
70454;Laerm;57915;47.174;14.680;2023-11-19T05:31:32;40.29;34.68;45.38;;
70454;Laerm;57915;47.174;14.680;2023-11-19T05:32:35;37.55;34.88;41.04;;
70454;Laerm;57915;47.174;14.680;2023-11-19T05:33:35;40.11;35.99;47.94;;
70454;Laerm;57915;47.174;14.680;2023-11-19T05:34:36;40.63;37.41;53.83;;
70454;Laerm;57915;47.174;14.680;2023-11-19T05:35:38;56.85;37.84;71.38;;
70454;Laerm;57915;47.174;14.680;2023-11-19T05:36:38;40.96;38.10;44.72;;
70454;Laerm;57915;47.174;14.680;2023-11-19T05:37:39;42.29;39.26;47.09;;
70454;Laerm;57915;47.174;14.680;2023-11-19T05:38:41;43.52;39.60;54.75;;